CheckWX is a tool to help pilots better visualize weather data.  It is not intended as a substitute for an official pre-flight weather briefing.

08:17:47 UTC

KAWO METAR
Arlington Municipal Airport
Arlington, Washington, USA
Current

22 mins ago

KAWO 220756Z AUTO 31003KT 10SM FEW120 M01/M02 A3010 RMK AO2 SLP197 T10111022 400721061 FZRANO
Observed
Feb-22 @ 07:56 UTC
Wind
  • 310° at 3 KTS
Visibility
10 SM
Flight Rules
VFR
Cloud Levels
  • Few at 12,000' AGL
Temperature
-1°C / 30°F
Dewpoint
-2°C / 28°F
Humidity
93%
Altimeter
30.1" Hg
Pressure
1019.7 hPa
Previous

1 hour ago

KAWO 220656Z AUTO 00000KT 10SM BKN070 BKN120 M01/M03 A3011 RMK AO2 SLP203 T10111028 FZRANO
Observed
Feb-22 @ 06:56 UTC
Visibility
10 SM
Flight Rules
VFR
Cloud Levels
  • Broken at 7,000' AGL
  • Broken at 12,000' AGL
Temperature
-1°C / 30°F
Dewpoint
-3°C / 27°F
Humidity
86%
Altimeter
30.11" Hg
Pressure
1020.3 hPa
Previous

2 hours ago

KAWO 220556Z AUTO 00000KT 10SM CLR M02/M03 A3013 RMK AO2 SLP207 T10171028 10072 21017 50002 FZRANO
Observed
Feb-22 @ 05:56 UTC
Visibility
10 SM
Flight Rules
VFR
Cloud Levels
  • Clear skies
Temperature
-2°C / 28°F
Dewpoint
-3°C / 27°F
Humidity
93%
Altimeter
30.13" Hg
Pressure
1020.7 hPa